createdAt,value
2023-01-01T00:00:21.198Z,10.60
2023-01-01T00:03:10.513Z,10.70
2023-01-01T00:05:58.477Z,10.60
2023-01-01T00:08:46.136Z,10.60
2023-01-01T00:11:33.838Z,10.60
2023-01-01T00:14:21.372Z,10.60
2023-01-01T00:17:09.466Z,10.60
2023-01-01T00:19:58.751Z,10.50
2023-01-01T00:22:54.966Z,10.50
2023-01-01T00:25:44.555Z,10.50
2023-01-01T00:28:31.845Z,10.50
2023-01-01T00:31:22.052Z,10.60
2023-01-01T00:34:11.951Z,10.70
2023-01-01T00:37:00.857Z,10.80
2023-01-01T00:39:48.587Z,11.00
2023-01-01T00:42:40.193Z,11.10
2023-01-01T00:45:28.532Z,11.30
2023-01-01T00:48:16.080Z,11.60
2023-01-01T00:51:04.487Z,11.90
2023-01-01T00:53:53.452Z,12.10
2023-01-01T00:56:41.209Z,12.20
2023-01-01T00:59:29.342Z,12.30
2023-01-01T01:02:17.430Z,12.40
2023-01-01T01:05:06.042Z,12.40
2023-01-01T01:07:54.504Z,12.40
2023-01-01T01:10:43.427Z,12.40
2023-01-01T01:13:31.416Z,12.50
2023-01-01T01:16:20.617Z,12.60
2023-01-01T01:19:13.908Z,12.90
2023-01-01T01:22:01.454Z,13.10
2023-01-01T01:24:50.006Z,13.20
2023-01-01T01:27:39.284Z,13.50
2023-01-01T01:30:27.130Z,13.70
2023-01-01T01:33:15.071Z,13.90
2023-01-01T01:36:02.791Z,14.00
2023-01-01T01:38:50.849Z,14.20
2023-01-01T01:41:38.681Z,14.40
2023-01-01T01:44:57.275Z,14.60
2023-01-01T01:47:51.416Z,14.70
2023-01-01T01:50:42.114Z,14.80
2023-01-01T01:53:33.112Z,15.10
2023-01-01T01:56:25.191Z,15.10
2023-01-01T01:59:13.042Z,15.20
2023-01-01T02:02:02.843Z,15.20
2023-01-01T02:04:51.127Z,15.30
2023-01-01T02:07:39.982Z,15.40
2023-01-01T02:10:28.736Z,15.40
2023-01-01T02:13:59.998Z,15.40
2023-01-01T02:16:52.480Z,15.40
2023-01-01T02:19:52.992Z,15.40
2023-01-01T02:23:07.026Z,15.40
2023-01-01T02:26:12.310Z,15.30
2023-01-01T02:29:06.194Z,15.30
2023-01-01T02:31:59.437Z,15.30
2023-01-01T02:34:52.735Z,15.40
2023-01-01T02:37:40.940Z,15.40
2023-01-01T02:40:29.722Z,15.50
2023-01-01T02:43:21.602Z,15.60
2023-01-01T02:49:10.303Z,15.80
2023-01-01T02:52:05.400Z,15.80
2023-01-01T02:54:59.997Z,15.90
2023-01-01T02:57:52.637Z,15.90
2023-01-01T03:00:40.606Z,16.00
2023-01-01T03:03:37.414Z,16.00
2023-01-01T03:06:34.090Z,15.90
2023-01-01T03:09:29.540Z,15.90
2023-01-01T03:12:26.460Z,15.90
2023-01-01T03:15:18.279Z,15.90
2023-01-01T03:18:09.905Z,15.90
2023-01-01T03:21:03.155Z,15.90
2023-01-01T03:23:54.975Z,16.00
2023-01-01T03:26:45.183Z,16.00
2023-01-01T03:29:36.814Z,15.90
2023-01-01T03:32:50.689Z,15.80
2023-01-01T03:35:43.200Z,15.80
2023-01-01T03:38:36.887Z,15.90
2023-01-01T03:41:28.407Z,15.80
2023-01-01T03:44:21.735Z,15.80
2023-01-01T03:47:09.624Z,15.90
2023-01-01T03:49:58.430Z,15.80
2023-01-01T03:52:57.978Z,15.80
2023-01-01T03:55:49.778Z,15.70
2023-01-01T03:58:44.796Z,15.70
2023-01-01T04:01:37.293Z,15.80
2023-01-01T04:04:25.887Z,15.70
2023-01-01T04:07:15.845Z,15.70
2023-01-01T04:10:17.450Z,15.60
2023-01-01T04:13:07.824Z,15.60
2023-01-01T04:15:55.574Z,15.50
2023-01-01T04:18:43.304Z,15.40
2023-01-01T04:21:30.718Z,15.30
2023-01-01T04:24:18.483Z,15.20
2023-01-01T04:27:06.096Z,15.10
2023-01-01T04:29:55.265Z,15.00
2023-01-01T04:32:44.684Z,15.00
2023-01-01T04:35:32.511Z,15.10
2023-01-01T04:38:19.875Z,15.00
2023-01-01T04:41:08.254Z,15.00
2023-01-01T04:43:55.849Z,15.00
2023-01-01T04:46:44.916Z,15.00
2023-01-01T04:49:32.627Z,14.90
2023-01-01T04:52:20.507Z,14.90
2023-01-01T04:55:09.928Z,14.90
2023-01-01T04:57:57.547Z,14.80
2023-01-01T05:00:45.615Z,14.70
2023-01-01T05:03:34.650Z,14.70
2023-01-01T05:06:23.628Z,14.70
2023-01-01T05:09:12.399Z,14.80
2023-01-01T05:12:00.481Z,14.80
2023-01-01T05:14:48.146Z,14.80
2023-01-01T05:17:35.634Z,14.70
2023-01-01T05:20:26.757Z,14.70
2023-01-01T05:23:16.560Z,14.60
2023-01-01T05:26:11.003Z,14.60
2023-01-01T05:29:00.243Z,14.60
2023-01-01T05:31:48.196Z,14.40
2023-01-01T05:37:23.259Z,14.30
2023-01-01T05:40:12.245Z,14.30
2023-01-01T05:42:59.670Z,14.20
2023-01-01T05:45:47.251Z,14.20
2023-01-01T05:48:36.699Z,14.10
2023-01-01T05:51:25.829Z,14.10
2023-01-01T05:57:00.997Z,14.20
2023-01-01T05:59:48.417Z,14.20
2023-01-01T06:02:35.980Z,14.20
2023-01-01T06:05:25.984Z,14.20
2023-01-01T06:08:13.782Z,14.20
2023-01-01T06:11:04.523Z,14.20
2023-01-01T06:13:54.189Z,14.10
2023-01-01T06:16:42.700Z,14.10
2023-01-01T06:19:30.452Z,14.10
2023-01-01T06:22:18.166Z,14.10
2023-01-01T06:25:06.509Z,14.20
2023-01-01T06:27:56.161Z,14.20
2023-01-01T06:30:44.110Z,14.20
2023-01-01T06:33:32.154Z,14.20
2023-01-01T06:36:21.713Z,14.20
2023-01-01T06:39:09.840Z,14.10
2023-01-01T06:41:57.587Z,14.20
2023-01-01T06:44:46.780Z,14.00
2023-01-01T06:47:36.231Z,13.90
2023-01-01T06:50:27.269Z,13.70
2023-01-01T06:53:15.298Z,13.60
2023-01-01T06:56:03.438Z,13.50
2023-01-01T06:58:51.068Z,13.40
2023-01-01T07:01:44.641Z,13.40
2023-01-01T07:04:32.881Z,13.30
2023-01-01T07:07:20.581Z,13.30
2023-01-01T07:10:08.888Z,13.20
2023-01-01T07:12:56.670Z,13.20
2023-01-01T07:15:44.645Z,13.30
2023-01-01T07:18:33.721Z,13.40
2023-01-01T07:21:32.928Z,13.40
2023-01-01T07:24:20.420Z,13.40
2023-01-01T07:27:07.890Z,13.40
2023-01-01T07:29:55.204Z,13.40
2023-01-01T07:32:42.841Z,13.40
2023-01-01T07:35:31.695Z,13.40
2023-01-01T07:38:19.515Z,13.30
2023-01-01T07:41:07.310Z,13.30
2023-01-01T07:43:54.871Z,13.30
2023-01-01T07:46:42.554Z,13.40
2023-01-01T07:49:30.092Z,13.30
2023-01-01T07:52:19.511Z,13.40
2023-01-01T07:55:07.782Z,13.50
2023-01-01T07:57:55.286Z,13.70
2023-01-01T08:00:46.494Z,13.80
2023-01-01T08:03:34.162Z,13.90
2023-01-01T08:06:22.491Z,14.10
2023-01-01T08:09:11.464Z,14.20
2023-01-01T08:11:59.383Z,14.30
2023-01-01T08:14:46.742Z,14.40
2023-01-01T08:17:34.327Z,14.60
2023-01-01T08:20:21.998Z,14.70
2023-01-01T08:23:09.597Z,14.80
2023-01-01T08:26:04.964Z,15.00
2023-01-01T08:28:57.159Z,15.10
2023-01-01T08:31:45.914Z,15.20
2023-01-01T08:34:33.738Z,15.30
2023-01-01T08:37:22.761Z,15.40
2023-01-01T08:40:12.959Z,15.50
2023-01-01T08:43:02.071Z,15.60
2023-01-01T08:45:49.824Z,15.70
2023-01-01T08:48:37.455Z,15.80
2023-01-01T08:51:25.015Z,15.90
2023-01-01T08:54:12.767Z,15.90
2023-01-01T08:57:00.635Z,16.00
2023-01-01T08:59:49.853Z,16.10
2023-01-01T09:02:37.757Z,16.20
2023-01-01T09:05:25.371Z,16.20
2023-01-01T09:08:12.782Z,16.30
2023-01-01T09:11:02.107Z,16.40
2023-01-01T09:13:49.498Z,16.50
2023-01-01T09:16:44.011Z,16.60
2023-01-01T09:19:31.732Z,16.60
2023-01-01T09:22:19.271Z,16.70
2023-01-01T09:25:07.417Z,16.80
2023-01-01T09:27:59.340Z,16.90
2023-01-01T09:30:47.008Z,16.90
2023-01-01T09:33:36.033Z,17.00
2023-01-01T09:36:30.145Z,17.00
2023-01-01T09:39:17.809Z,17.20
2023-01-01T09:42:25.513Z,17.20
2023-01-01T09:45:24.612Z,17.30
2023-01-01T09:48:14.691Z,17.40
2023-01-01T09:51:08.703Z,17.50
2023-01-01T09:54:02.200Z,17.60
2023-01-01T09:57:00.711Z,17.70
2023-01-01T09:59:48.408Z,17.80
2023-01-01T10:02:49.821Z,17.90
2023-01-01T10:05:51.045Z,17.80
2023-01-01T10:09:02.247Z,17.80
2023-01-01T10:11:57.010Z,17.80
2023-01-01T10:14:47.867Z,17.80
2023-01-01T10:17:39.200Z,17.90
2023-01-01T10:20:30.978Z,18.00
2023-01-01T10:23:22.363Z,18.00
2023-01-01T10:26:16.884Z,18.00
2023-01-01T10:29:11.595Z,18.00
2023-01-01T10:32:05.693Z,18.00
2023-01-01T10:34:53.516Z,18.00
2023-01-01T10:37:41.474Z,18.10
2023-01-01T10:40:32.593Z,18.10
2023-01-01T10:43:21.820Z,18.10
2023-01-01T10:46:14.446Z,18.00
2023-01-01T10:49:07.738Z,18.10
2023-01-01T10:51:56.397Z,18.20
2023-01-01T10:54:44.669Z,18.20
2023-01-01T10:57:35.567Z,18.30
2023-01-01T11:00:26.405Z,18.30
2023-01-01T11:03:19.685Z,18.40
2023-01-01T11:06:21.125Z,18.30
2023-01-01T11:09:25.696Z,18.40
2023-01-01T11:12:54.485Z,18.30
2023-01-01T11:15:38.626Z,18.40
2023-01-01T11:18:35.716Z,18.40
2023-01-01T11:21:25.283Z,18.40
2023-01-01T11:24:21.360Z,18.40
2023-01-01T11:27:18.347Z,18.40
2023-01-01T11:30:24.675Z,18.40
2023-01-01T11:33:18.773Z,18.40
2023-01-01T11:36:07.559Z,18.50
2023-01-01T11:39:18.745Z,18.60
2023-01-01T11:42:08.523Z,18.50
2023-01-01T11:44:58.549Z,18.50
2023-01-01T11:47:46.739Z,18.60
2023-01-01T11:50:35.925Z,18.60
2023-01-01T11:53:29.540Z,18.70
2023-01-01T11:56:17.670Z,18.70
2023-01-01T11:59:07.896Z,18.80
2023-01-01T12:01:56.133Z,18.70
2023-01-01T12:04:46.768Z,18.80
2023-01-01T12:07:38.675Z,18.70
2023-01-01T12:10:28.411Z,18.80
2023-01-01T12:13:18.674Z,18.80
2023-01-01T12:16:10.163Z,18.80
2023-01-01T12:19:01.569Z,18.60
2023-01-01T12:21:52.789Z,18.50
2023-01-01T12:24:41.706Z,18.50
2023-01-01T12:27:36.437Z,18.40
2023-01-01T12:30:25.279Z,18.40
2023-01-01T12:33:23.174Z,18.40
2023-01-01T12:36:16.473Z,18.40
2023-01-01T12:39:21.701Z,18.30
2023-01-01T12:42:15.640Z,18.30
2023-01-01T12:45:16.303Z,18.30
2023-01-01T12:48:07.321Z,18.30
2023-01-01T12:51:05.016Z,18.30
2023-01-01T12:54:00.381Z,18.40
2023-01-01T12:56:50.771Z,18.30
2023-01-01T12:59:40.980Z,18.30
2023-01-01T13:02:30.091Z,18.30
2023-01-01T13:05:19.845Z,18.20
2023-01-01T13:08:07.475Z,18.10
2023-01-01T13:10:56.150Z,18.00
2023-01-01T13:13:43.656Z,18.00
2023-01-01T13:16:37.135Z,17.90
2023-01-01T13:19:31.904Z,17.90
2023-01-01T13:22:39.707Z,17.90
2023-01-01T13:25:26.784Z,17.90
2023-01-01T14:42:18.678Z,15.30
2023-01-01T14:45:07.605Z,15.00
2023-01-01T14:47:57.084Z,14.90
2023-01-01T14:50:50.722Z,14.80
2023-01-01T14:53:38.149Z,14.80
2023-01-01T14:56:27.915Z,14.80
2023-01-01T14:59:25.111Z,14.80
2023-01-01T15:02:16.662Z,14.90
2023-01-01T15:05:33.336Z,14.80
2023-01-01T15:08:24.248Z,14.90
2023-01-01T15:11:11.778Z,14.90
2023-01-01T15:14:01.301Z,14.90
2023-01-01T15:17:02.367Z,14.90
2023-01-01T15:20:02.651Z,15.00
2023-01-01T15:22:51.306Z,15.00
2023-01-01T15:25:38.571Z,15.10
2023-01-01T15:28:25.917Z,15.10
2023-01-01T15:31:13.286Z,15.10
2023-01-01T15:34:02.141Z,15.10
2023-01-01T15:36:49.776Z,15.00
2023-01-01T15:39:47.469Z,15.00
2023-01-01T15:42:36.560Z,14.90
2023-01-01T15:45:28.709Z,14.80
2023-01-01T15:48:22.453Z,14.80
2023-01-01T15:51:17.011Z,14.70
2023-01-01T15:54:06.120Z,14.70
2023-01-01T15:56:53.594Z,14.60
2023-01-01T15:59:44.871Z,14.60
2023-01-01T16:02:36.407Z,14.50
2023-01-01T16:05:26.057Z,14.50
2023-01-01T16:08:14.817Z,14.40
2023-01-01T16:11:02.123Z,14.30
2023-01-01T16:13:49.490Z,14.30
2023-01-01T16:16:38.676Z,14.30
2023-01-01T16:19:26.761Z,14.30
2023-01-01T16:22:17.125Z,14.30
2023-01-01T16:25:14.673Z,14.20
2023-01-01T16:28:01.950Z,14.20
2023-01-01T16:30:48.812Z,14.20
2023-01-01T16:33:36.486Z,14.20
2023-01-01T16:36:23.741Z,14.10
2023-01-01T16:39:10.711Z,14.10
2023-01-01T16:41:59.567Z,14.10
2023-01-01T16:44:46.791Z,14.00
2023-01-01T16:47:34.111Z,14.00
2023-01-01T16:50:21.283Z,14.00
2023-01-01T16:53:08.279Z,14.00
2023-01-01T16:55:55.038Z,13.90
2023-01-01T16:58:55.243Z,13.90
2023-01-01T17:01:45.770Z,14.00
2023-01-01T17:04:35.417Z,14.00
2023-01-01T17:07:22.862Z,14.00
2023-01-01T17:10:10.261Z,13.90
2023-01-01T17:13:01.854Z,13.90
2023-01-01T17:15:57.119Z,13.80
2023-01-01T17:19:13.914Z,13.90
2023-01-01T17:21:51.463Z,13.90
2023-01-01T17:24:38.589Z,13.90
2023-01-01T17:27:25.856Z,13.80
2023-01-01T17:30:13.588Z,13.70
2023-01-01T17:33:02.373Z,13.70
2023-01-01T17:35:49.322Z,13.70
2023-01-01T17:38:36.267Z,13.70
2023-01-01T17:41:23.539Z,13.70
2023-01-01T17:44:11.162Z,13.70
2023-01-01T17:46:58.273Z,13.70
2023-01-01T17:49:46.511Z,13.70
2023-01-01T17:52:33.929Z,13.90
2023-01-01T17:55:21.145Z,13.90
2023-01-01T17:58:08.495Z,13.80
2023-01-01T18:01:04.872Z,13.80
2023-01-01T18:03:52.515Z,13.70
2023-01-01T18:06:42.859Z,13.60
2023-01-01T18:09:30.153Z,13.60
2023-01-01T18:12:17.384Z,13.60
2023-01-01T18:15:04.521Z,13.50
2023-01-01T18:17:51.965Z,13.50
2023-01-01T18:20:39.111Z,13.50
2023-01-01T18:23:27.348Z,13.60
2023-01-01T18:26:14.605Z,13.50
2023-01-01T18:29:02.386Z,13.50
2023-01-01T18:31:49.582Z,13.50
2023-01-01T18:34:36.720Z,13.50
2023-01-01T18:37:24.199Z,13.40
2023-01-01T18:40:14.426Z,13.30
2023-01-01T18:43:02.914Z,13.20
2023-01-01T18:45:50.140Z,13.10
2023-01-01T18:48:37.646Z,13.00
2023-01-01T18:51:25.307Z,12.90
2023-01-01T18:54:14.019Z,12.80
2023-01-01T18:57:07.381Z,12.60
2023-01-01T18:59:56.434Z,12.50
2023-01-01T19:02:45.322Z,12.30
2023-01-01T19:05:33.260Z,12.20
2023-01-01T19:08:21.287Z,12.00
2023-01-01T19:11:13.375Z,11.90
2023-01-01T19:14:03.411Z,11.70
2023-01-01T19:16:51.848Z,11.60
2023-01-01T19:19:40.734Z,11.50
2023-01-01T19:22:29.687Z,11.30
2023-01-01T19:25:34.874Z,11.20
2023-01-01T19:28:37.715Z,11.10
2023-01-01T19:31:26.476Z,11.00
2023-01-01T19:34:13.938Z,11.00
2023-01-01T19:37:00.757Z,10.90
2023-01-01T19:39:50.285Z,10.80
2023-01-01T19:42:37.521Z,10.70
2023-01-01T19:45:24.828Z,10.70
2023-01-01T19:48:13.188Z,10.60
2023-01-01T19:51:00.307Z,10.60
2023-01-01T19:53:47.212Z,10.50
2023-01-01T19:56:34.457Z,10.40
2023-01-01T19:59:21.555Z,10.30
2023-01-01T20:02:43.914Z,10.20
2023-01-01T20:05:18.038Z,10.10
2023-01-01T20:08:05.547Z,10.00
2023-01-01T20:10:52.833Z,9.90
2023-01-01T20:13:40.026Z,9.80
2023-01-01T20:16:27.394Z,9.70
2023-01-01T20:19:14.352Z,9.60
2023-01-01T20:22:14.976Z,9.50
2023-01-01T20:25:02.191Z,9.40
2023-01-01T20:28:06.931Z,9.30
2023-01-01T20:30:54.061Z,9.20
2023-01-01T20:33:41.328Z,9.00
2023-01-01T20:36:46.186Z,8.90
2023-01-01T20:39:34.904Z,8.80
2023-01-01T20:42:22.092Z,8.70
2023-01-01T20:45:09.479Z,8.60
2023-01-01T20:47:56.701Z,8.50
2023-01-01T20:50:43.931Z,8.40
2023-01-01T20:53:30.810Z,8.40
2023-01-01T20:56:19.069Z,8.30
2023-01-01T20:59:31.500Z,8.20
2023-01-01T21:02:13.667Z,8.20
2023-01-01T21:05:00.638Z,8.20
2023-01-01T21:07:47.657Z,8.20
2023-01-01T21:10:34.725Z,8.20
2023-01-01T21:13:23.231Z,8.20
2023-01-01T21:16:16.189Z,8.10
2023-01-01T21:19:04.400Z,8.10
2023-01-01T21:21:52.398Z,8.10
2023-01-01T21:24:39.831Z,8.10
2023-01-01T21:27:30.586Z,8.10
2023-01-01T21:30:19.684Z,8.10
2023-01-01T21:33:13.990Z,8.00
2023-01-01T21:36:03.324Z,7.90
2023-01-01T21:38:51.386Z,7.90
2023-01-01T21:41:39.663Z,7.90
2023-01-01T21:44:26.607Z,7.90
2023-01-01T21:47:23.432Z,7.90
2023-01-01T21:50:20.658Z,7.90
2023-01-01T21:53:11.794Z,7.90
2023-01-01T21:55:59.263Z,8.00
2023-01-01T21:59:04.544Z,8.10
2023-01-01T22:01:52.034Z,8.20
2023-01-01T22:04:41.367Z,8.20
2023-01-01T22:10:39.325Z,8.30
2023-01-01T22:13:26.668Z,8.30
2023-01-01T22:16:16.626Z,8.30
2023-01-01T22:19:11.929Z,8.40
2023-01-01T22:22:00.684Z,8.40
2023-01-01T22:24:51.707Z,8.40
2023-01-01T22:27:39.049Z,8.30
2023-01-01T22:30:38.072Z,8.30
2023-01-01T22:33:28.893Z,8.30
2023-01-01T22:36:16.819Z,8.30
2023-01-01T22:39:10.386Z,8.30
2023-01-01T22:41:57.761Z,8.30
2023-01-01T22:44:45.156Z,8.30
2023-01-01T22:47:33.977Z,8.30
2023-01-01T22:50:22.562Z,8.30
2023-01-01T22:53:09.340Z,8.30
2023-01-01T22:55:57.524Z,8.30
2023-01-01T22:58:44.624Z,8.30
2023-01-01T23:01:31.545Z,8.30
2023-01-01T23:04:18.681Z,8.30
2023-01-01T23:07:06.571Z,8.30
2023-01-01T23:09:53.612Z,8.30
2023-01-01T23:12:42.207Z,8.20
2023-01-01T23:15:49.745Z,8.20
2023-01-01T23:18:41.099Z,8.20
2023-01-01T23:21:28.364Z,8.20
2023-01-01T23:24:16.540Z,8.10
2023-01-01T23:27:03.842Z,8.10
2023-01-01T23:29:53.048Z,8.10
2023-01-01T23:32:40.615Z,8.10
2023-01-01T23:35:27.969Z,8.10
2023-01-01T23:38:15.258Z,8.10
2023-01-01T23:41:02.445Z,8.10
2023-01-01T23:43:49.922Z,8.20
2023-01-01T23:46:39.370Z,8.20
2023-01-01T23:49:27.111Z,8.20
2023-01-01T23:52:14.279Z,8.30
2023-01-01T23:55:01.200Z,8.30
2023-01-01T23:57:48.459Z,8.30
